createdAt,value
2023-02-18T00:02:18.095Z,15.41
2023-02-18T00:05:24.331Z,15.43
2023-02-18T00:08:28.880Z,15.51
2023-02-18T00:11:37.791Z,15.53
2023-02-18T00:14:44.305Z,15.65
2023-02-18T00:17:50.543Z,15.70
2023-02-18T00:20:55.090Z,15.73
2023-02-18T00:24:01.282Z,15.64
2023-02-18T00:27:05.777Z,15.68
2023-02-18T00:30:13.635Z,15.64
2023-02-18T00:33:19.885Z,15.66
2023-02-18T00:36:24.872Z,15.45
2023-02-18T00:39:31.697Z,14.58
2023-02-18T00:42:38.005Z,13.81
2023-02-18T00:45:44.267Z,13.38
2023-02-18T00:48:50.894Z,13.54
2023-02-18T00:51:57.322Z,13.71
2023-02-18T00:55:03.532Z,13.86
2023-02-18T00:58:08.040Z,13.99
2023-02-18T01:01:14.727Z,14.04
2023-02-18T01:04:21.387Z,14.13
2023-02-18T01:07:27.777Z,14.20
2023-02-18T01:10:34.224Z,14.27
2023-02-18T01:13:41.168Z,14.35
2023-02-18T01:16:47.496Z,14.43
2023-02-18T01:19:53.520Z,14.47
2023-02-18T01:22:59.928Z,14.51
2023-02-18T01:26:06.727Z,14.56
2023-02-18T01:29:13.357Z,14.58
2023-02-18T01:32:19.960Z,14.62
2023-02-18T01:35:27.057Z,14.62
2023-02-18T01:38:33.369Z,14.13
2023-02-18T01:41:39.603Z,13.52
2023-02-18T01:44:45.193Z,13.22
2023-02-18T01:47:51.569Z,13.43
2023-02-18T01:51:02.212Z,13.58
2023-02-18T01:54:10.935Z,13.62
2023-02-18T01:57:20.112Z,13.60
2023-02-18T02:00:26.828Z,13.57
2023-02-18T02:03:33.149Z,13.54
2023-02-18T02:06:39.591Z,13.50
2023-02-18T02:09:46.977Z,13.44
2023-02-18T02:13:02.592Z,13.41
2023-02-18T02:16:13.133Z,13.42
2023-02-18T02:19:51.449Z,13.43
2023-02-18T02:23:17.526Z,13.42
2023-02-18T02:27:00.469Z,13.36
2023-02-18T02:30:42.361Z,13.28
2023-02-18T02:34:19.076Z,13.19
2023-02-18T02:37:35.403Z,13.12
2023-02-18T02:40:48.205Z,13.11
2023-02-18T02:44:03.660Z,13.10
2023-02-18T02:47:15.818Z,13.07
2023-02-18T02:50:27.974Z,13.05
2023-02-18T02:53:35.599Z,13.04
2023-02-18T02:56:41.887Z,13.04
2023-02-18T02:59:53.968Z,13.03
2023-02-18T03:03:28.905Z,13.03
2023-02-18T03:06:56.833Z,13.03
2023-02-18T03:10:18.634Z,13.06
2023-02-18T03:13:35.400Z,13.03
2023-02-18T03:16:50.593Z,13.07
2023-02-18T03:20:03.132Z,13.10
2023-02-18T03:23:18.017Z,13.10
2023-02-18T03:47:03.652Z,12.06
2023-02-18T03:50:11.712Z,12.12
2023-02-18T03:53:17.877Z,12.22
2023-02-18T03:56:22.990Z,12.27
2023-02-18T03:59:29.259Z,12.30
2023-02-18T04:02:33.801Z,12.37
2023-02-18T04:05:39.869Z,12.37
2023-02-18T04:08:46.537Z,12.36
2023-02-18T04:11:52.761Z,11.92
2023-02-18T04:14:57.219Z,11.36
2023-02-18T04:18:03.170Z,10.95
2023-02-18T04:21:09.882Z,10.79
2023-02-18T04:24:16.109Z,11.15
2023-02-18T04:27:20.752Z,11.48
2023-02-18T04:30:27.136Z,11.67
2023-02-18T04:33:33.478Z,11.83
2023-02-18T04:36:38.067Z,11.94
2023-02-18T04:39:44.190Z,12.00
2023-02-18T04:42:50.359Z,12.07
2023-02-18T04:45:56.305Z,12.11
2023-02-18T04:49:02.566Z,12.16
2023-02-18T04:52:07.468Z,12.10
2023-02-18T04:55:13.676Z,11.54
2023-02-18T04:58:18.181Z,11.01
2023-02-18T05:01:24.497Z,10.62
2023-02-18T05:04:30.889Z,10.43
2023-02-18T05:07:37.493Z,10.77
2023-02-18T05:10:43.727Z,11.09
2023-02-18T05:13:50.045Z,11.30
2023-02-18T05:16:54.567Z,11.03
2023-02-18T05:20:00.863Z,10.54
2023-02-18T05:23:07.079Z,10.19
2023-02-18T05:26:11.675Z,9.92
2023-02-18T05:29:17.970Z,9.70
2023-02-18T05:32:22.476Z,9.52
2023-02-18T05:35:28.667Z,9.37
2023-02-18T05:38:33.294Z,9.25
2023-02-18T05:41:39.642Z,9.13
2023-02-18T05:44:44.105Z,9.04
2023-02-18T05:47:50.266Z,8.94
2023-02-18T05:50:56.943Z,8.86
2023-02-18T05:54:03.147Z,8.77
2023-02-18T05:57:07.628Z,8.69
2023-02-18T06:00:15.734Z,8.61
2023-02-18T06:03:21.980Z,8.55
2023-02-18T06:06:26.490Z,8.50
2023-02-18T06:09:32.721Z,8.48
2023-02-18T06:12:38.974Z,8.48
2023-02-18T06:15:43.528Z,8.47
2023-02-18T06:18:49.680Z,8.47
2023-02-18T06:21:56.301Z,8.47
2023-02-18T06:25:02.564Z,8.46
2023-02-18T06:28:07.118Z,8.46
2023-02-18T06:31:13.437Z,8.45
2023-02-18T06:34:19.735Z,8.43
2023-02-18T06:37:24.285Z,8.43
2023-02-18T06:40:30.452Z,8.43
2023-02-18T06:43:36.930Z,8.42
2023-02-18T06:46:43.149Z,8.42
2023-02-18T06:49:49.427Z,8.44
2023-02-18T06:52:53.930Z,8.46
2023-02-18T06:56:00.328Z,8.49
2023-02-18T06:59:06.509Z,8.50
2023-02-18T07:02:14.255Z,8.52
2023-02-18T07:05:20.632Z,8.57
2023-02-18T07:08:25.055Z,8.62
2023-02-18T07:11:31.261Z,8.67
2023-02-18T07:14:35.559Z,8.70
2023-02-18T07:17:41.817Z,8.74
2023-02-18T07:20:48.091Z,8.76
2023-02-18T07:23:52.638Z,8.80
2023-02-18T07:26:58.885Z,8.84
2023-02-18T07:30:05.688Z,8.89
2023-02-18T07:33:11.901Z,8.95
2023-02-18T07:36:16.449Z,8.99
2023-02-18T07:39:22.837Z,9.03
2023-02-18T07:42:29.036Z,9.06
2023-02-18T07:45:33.874Z,9.08
2023-02-18T07:48:40.310Z,9.11
2023-02-18T07:51:44.931Z,9.12
2023-02-18T07:54:51.295Z,9.13
2023-02-18T07:58:01.039Z,9.14
2023-02-18T08:01:11.052Z,9.16
2023-02-18T08:04:17.383Z,9.18
2023-02-18T08:07:24.572Z,9.19
2023-02-18T08:10:30.844Z,9.20
2023-02-18T08:13:35.336Z,9.20
2023-02-18T08:16:41.598Z,9.20
2023-02-18T08:19:46.141Z,9.19
2023-02-18T08:22:52.422Z,9.20
2023-02-18T08:25:56.910Z,9.19
2023-02-18T08:29:03.603Z,9.19
2023-02-18T08:32:09.929Z,9.18
2023-02-18T08:35:17.058Z,9.17
2023-02-18T08:38:24.409Z,9.16
2023-02-18T08:41:30.644Z,9.16
2023-02-18T08:44:36.876Z,9.16
2023-02-18T08:48:17.097Z,9.16
2023-02-18T08:51:17.668Z,9.17
2023-02-18T08:54:24.248Z,9.17
2023-02-18T08:57:30.490Z,9.18
2023-02-18T09:00:35.026Z,9.20
2023-02-18T09:03:42.249Z,9.21
2023-02-18T09:06:48.480Z,9.24
2023-02-18T09:09:52.999Z,9.25
2023-02-18T09:12:59.281Z,9.28
2023-02-18T09:16:05.349Z,9.32
2023-02-18T09:19:11.759Z,9.35
2023-02-18T09:22:18.190Z,9.37
2023-02-18T09:25:24.865Z,9.39
2023-02-18T09:28:30.834Z,9.41
2023-02-18T09:31:38.121Z,9.43
2023-02-18T09:34:44.484Z,9.45
2023-02-18T09:37:48.998Z,9.46
2023-02-18T09:40:57.075Z,9.47
2023-02-18T09:44:06.893Z,9.48
2023-02-18T09:47:18.443Z,9.49
2023-02-18T09:50:29.019Z,9.49
2023-02-18T09:53:35.277Z,9.52
2023-02-18T09:56:40.765Z,9.54
2023-02-18T09:59:49.002Z,9.56
2023-02-18T10:03:00.390Z,9.59
2023-02-18T10:06:12.199Z,9.60
2023-02-18T10:09:22.780Z,9.62
2023-02-18T10:12:33.052Z,9.64
2023-02-18T10:15:42.155Z,9.66
2023-02-18T10:18:50.384Z,9.68
2023-02-18T10:21:58.687Z,9.72
2023-02-18T10:25:08.255Z,9.74
2023-02-18T10:28:14.687Z,9.78
2023-02-18T10:31:27.045Z,9.83
2023-02-18T10:34:43.561Z,9.90
2023-02-18T10:38:03.013Z,10.00
2023-02-18T10:41:19.231Z,10.08
2023-02-18T10:44:37.963Z,10.16
2023-02-18T10:47:52.399Z,10.24
2023-02-18T10:51:01.757Z,10.31
2023-02-18T10:54:10.115Z,10.35
2023-02-18T10:57:21.618Z,10.36
2023-02-18T11:00:29.087Z,10.38
2023-02-18T11:03:45.242Z,10.38
2023-02-18T11:06:53.228Z,10.35
2023-02-18T11:10:01.873Z,10.34
2023-02-18T11:13:10.405Z,10.34
2023-02-18T11:16:17.430Z,10.36
2023-02-18T11:19:38.121Z,10.37
2023-02-18T11:22:44.287Z,10.38
2023-02-18T11:26:06.089Z,10.39
2023-02-18T11:29:21.303Z,10.39
2023-02-18T11:32:30.730Z,10.41
2023-02-18T11:35:39.019Z,10.45
2023-02-18T11:38:49.787Z,10.52
2023-02-18T11:42:00.460Z,10.59
2023-02-18T11:45:07.274Z,10.63
2023-02-18T11:48:20.072Z,10.67
2023-02-18T11:51:28.131Z,10.68
2023-02-18T11:54:36.129Z,10.68
2023-02-18T11:57:45.311Z,10.68
2023-02-18T12:00:53.068Z,10.64
2023-02-18T12:04:05.556Z,10.64
2023-02-18T12:07:20.599Z,10.68
2023-02-18T12:10:31.345Z,10.70
2023-02-18T12:13:42.763Z,10.68
2023-02-18T12:17:13.350Z,10.64
2023-02-18T12:20:49.475Z,10.59
2023-02-18T12:24:05.139Z,10.47
2023-02-18T12:27:18.887Z,10.40
2023-02-18T12:31:00.723Z,10.32
2023-02-18T12:34:26.111Z,10.23
2023-02-18T12:37:58.269Z,10.16
2023-02-18T12:41:20.504Z,10.11
2023-02-18T12:44:45.658Z,10.04
2023-02-18T12:48:11.525Z,9.98
2023-02-18T12:51:40.648Z,9.93
2023-02-18T12:55:18.569Z,9.89
2023-02-18T12:58:38.642Z,9.86
2023-02-18T13:02:02.123Z,9.82
2023-02-18T13:05:17.098Z,9.79
2023-02-18T13:08:38.714Z,9.76
2023-02-18T13:11:56.645Z,9.74
2023-02-18T13:15:07.956Z,9.70
2023-02-18T13:18:18.109Z,9.69
2023-02-18T13:21:26.540Z,9.67
2023-02-18T13:24:35.256Z,9.66
2023-02-18T13:27:47.076Z,9.67
2023-02-18T13:31:00.382Z,9.67
2023-02-18T13:34:14.208Z,9.66
2023-02-18T13:37:27.934Z,9.64
2023-02-18T13:40:35.444Z,9.65
2023-02-18T13:43:41.718Z,9.64
2023-02-18T13:46:53.151Z,9.62
2023-02-18T13:49:59.219Z,9.62
2023-02-18T13:53:30.903Z,9.62
2023-02-18T13:56:41.892Z,9.63
2023-02-18T13:59:49.853Z,9.63
2023-02-18T14:03:04.199Z,9.64
2023-02-18T14:06:21.407Z,9.65
2023-02-18T14:09:42.996Z,9.66
2023-02-18T14:13:20.019Z,9.66
2023-02-18T14:16:26.389Z,9.67
2023-02-18T14:19:33.217Z,9.70
2023-02-18T14:22:49.157Z,9.70
2023-02-18T14:25:57.381Z,9.68
2023-02-18T14:29:09.755Z,9.67
2023-02-18T14:32:19.313Z,9.65
2023-02-18T14:35:34.195Z,9.64
2023-02-18T14:38:49.956Z,9.76
2023-02-18T14:42:02.979Z,10.35
2023-02-18T14:45:28.396Z,10.92
2023-02-18T14:48:52.489Z,11.33
2023-02-18T14:52:00.449Z,11.49
2023-02-18T14:55:09.579Z,11.14
2023-02-18T14:58:29.409Z,10.82
2023-02-18T15:01:38.544Z,10.60
2023-02-18T15:04:46.017Z,10.45
2023-02-18T15:08:04.075Z,10.30
2023-02-18T15:11:13.126Z,10.16
2023-02-18T15:14:25.949Z,10.14
2023-02-18T15:17:32.228Z,10.56
2023-02-18T15:20:39.820Z,11.00
2023-02-18T15:23:46.045Z,11.32
2023-02-18T15:26:52.176Z,11.58
2023-02-18T15:30:00.973Z,11.75
2023-02-18T15:33:15.251Z,11.92
2023-02-18T15:36:21.982Z,12.04
2023-02-18T15:39:28.650Z,12.13
2023-02-18T15:42:37.703Z,12.22
2023-02-18T15:45:46.010Z,12.29
2023-02-18T15:48:53.591Z,12.37
2023-02-18T15:52:02.346Z,12.44
2023-02-18T15:55:15.911Z,12.50
2023-02-18T15:58:26.217Z,12.56
2023-02-18T16:01:32.851Z,12.60
2023-02-18T16:04:42.444Z,12.63
2023-02-18T16:07:58.737Z,12.67
2023-02-18T16:11:07.676Z,12.69
2023-02-18T16:14:28.175Z,12.71
2023-02-18T16:17:35.195Z,12.75
2023-02-18T16:20:42.358Z,12.74
2023-02-18T16:23:58.067Z,12.74
2023-02-18T16:27:08.091Z,12.73
2023-02-18T16:30:20.365Z,12.72
2023-02-18T16:33:26.597Z,12.73
2023-02-18T16:36:31.076Z,12.74
2023-02-18T16:39:37.784Z,12.70
2023-02-18T16:42:43.972Z,12.67
2023-02-18T16:45:50.027Z,12.66
2023-02-18T16:48:57.420Z,12.63
2023-02-18T16:52:08.221Z,12.66
2023-02-18T16:55:20.685Z,12.67
2023-02-18T16:58:26.844Z,12.71
2023-02-18T17:01:32.205Z,12.76
2023-02-18T17:04:38.895Z,12.78
2023-02-18T17:07:45.087Z,12.85
2023-02-18T17:10:52.781Z,12.90
2023-02-18T17:13:59.490Z,12.96
2023-02-18T17:17:11.825Z,13.03
2023-02-18T17:20:18.394Z,13.10
2023-02-18T17:23:26.173Z,13.13
2023-02-18T17:26:33.353Z,13.17
2023-02-18T17:29:39.617Z,13.19
2023-02-18T17:32:44.890Z,13.21
2023-02-18T17:35:51.224Z,13.12
2023-02-18T17:38:57.644Z,13.12
2023-02-18T17:42:03.805Z,13.11
2023-02-18T17:45:17.253Z,13.10
2023-02-18T17:48:23.691Z,13.04
2023-02-18T17:51:30.407Z,13.03
2023-02-18T17:54:36.585Z,13.00
2023-02-18T17:57:40.982Z,13.05
2023-02-18T18:00:50.524Z,13.01
2023-02-18T18:03:56.732Z,13.02
2023-02-18T18:07:01.236Z,13.03
2023-02-18T18:10:09.694Z,12.98
2023-02-18T18:13:20.354Z,13.01
2023-02-18T18:16:27.315Z,13.03
2023-02-18T18:19:34.278Z,13.00
2023-02-18T18:22:42.845Z,12.96
2023-02-18T18:25:50.740Z,12.96
2023-02-18T18:33:20.433Z,13.04
2023-02-18T18:36:26.837Z,13.03
2023-02-18T18:39:33.327Z,13.01
2023-02-18T18:42:39.429Z,13.03
2023-02-18T18:45:46.525Z,13.05
2023-02-18T18:48:52.736Z,13.08
2023-02-18T18:51:57.238Z,13.12
2023-02-18T18:55:03.410Z,13.07
2023-02-18T18:58:07.943Z,13.11
2023-02-18T19:01:18.867Z,13.08
2023-02-18T19:04:26.150Z,13.12
2023-02-18T19:07:32.968Z,13.13
2023-02-18T19:10:40.469Z,13.11
2023-02-18T19:13:46.874Z,13.09
2023-02-18T19:16:56.015Z,13.05
2023-02-18T19:20:02.762Z,13.00
2023-02-18T19:23:09.568Z,12.98
2023-02-18T19:26:18.204Z,12.97
2023-02-18T19:29:24.539Z,12.92
2023-02-18T19:32:30.930Z,12.92
2023-02-18T19:35:39.940Z,12.93
2023-02-18T19:38:46.956Z,12.92
2023-02-18T19:41:53.238Z,12.91
2023-02-18T19:44:58.052Z,12.93
2023-02-18T19:48:06.759Z,12.87
2023-02-18T19:51:14.717Z,12.85
2023-02-18T19:54:20.948Z,12.86
2023-02-18T19:57:25.656Z,12.88
2023-02-18T20:00:31.912Z,12.86
2023-02-18T20:03:36.529Z,12.91
2023-02-18T20:06:43.029Z,12.90
2023-02-18T20:09:52.249Z,12.96
2023-02-18T20:12:58.532Z,12.94
2023-02-18T20:16:06.712Z,12.96
2023-02-18T20:19:13.526Z,12.98
2023-02-18T20:22:19.818Z,13.00
2023-02-18T20:25:26.753Z,13.03
2023-02-18T20:28:33.025Z,13.04
2023-02-18T20:31:37.836Z,13.03
2023-02-18T20:34:44.108Z,13.00
2023-02-18T20:37:48.669Z,13.00
2023-02-18T20:40:54.890Z,12.97
2023-02-18T20:44:01.995Z,12.98
2023-02-18T20:47:08.820Z,12.94
2023-02-18T20:50:15.933Z,12.93
2023-02-18T20:53:22.071Z,12.92
2023-02-18T20:56:30.791Z,12.91
2023-02-18T20:59:37.446Z,12.91
2023-02-18T21:02:43.747Z,12.92
2023-02-18T21:05:57.425Z,12.92
2023-02-18T21:09:03.695Z,12.91
2023-02-18T21:12:09.794Z,12.90
2023-02-18T21:15:16.005Z,12.88
2023-02-18T21:18:20.447Z,12.87
2023-02-18T21:21:27.058Z,12.86
2023-02-18T21:24:33.422Z,12.87
2023-02-18T21:27:39.631Z,12.88
2023-02-18T21:30:45.492Z,12.89
2023-02-18T21:33:49.940Z,12.83
2023-02-18T21:36:56.028Z,12.71
2023-02-18T21:40:02.274Z,12.61
2023-02-18T21:43:06.789Z,12.49
2023-02-18T21:46:17.850Z,12.25
2023-02-18T21:49:24.129Z,12.15
2023-02-18T21:52:29.108Z,12.10
2023-02-18T21:55:35.318Z,12.05
2023-02-18T21:58:41.816Z,12.07
2023-02-18T22:01:48.055Z,12.03
2023-02-18T22:04:53.055Z,12.08
2023-02-18T22:07:59.098Z,12.07
2023-02-18T22:11:07.311Z,12.08
2023-02-18T22:14:14.849Z,12.06
2023-02-18T22:17:22.299Z,12.07
2023-02-18T22:20:28.557Z,12.03
2023-02-18T22:23:33.671Z,12.04
2023-02-18T22:26:39.946Z,11.99
2023-02-18T22:29:44.491Z,11.95
2023-02-18T22:32:50.717Z,11.90
2023-02-18T22:35:56.878Z,11.93
2023-02-18T22:39:03.652Z,11.91
2023-02-18T22:42:09.930Z,11.91
2023-02-18T22:45:14.464Z,11.92
2023-02-18T22:48:20.749Z,11.84
2023-02-18T22:51:26.098Z,11.83
2023-02-18T22:54:32.348Z,11.78
2023-02-18T22:57:38.802Z,11.79
2023-02-18T23:00:45.119Z,11.78
2023-02-18T23:03:49.612Z,11.75
2023-02-18T23:06:56.932Z,11.66
2023-02-18T23:10:03.241Z,11.65
2023-02-18T23:13:09.408Z,11.65
2023-02-18T23:16:16.808Z,11.66
2023-02-18T23:19:23.337Z,11.63
2023-02-18T23:22:33.608Z,11.61
2023-02-18T23:25:39.952Z,11.62
2023-02-18T23:28:49.386Z,11.60
2023-02-18T23:31:55.659Z,11.60
2023-02-18T23:35:01.825Z,11.58
2023-02-18T23:38:08.085Z,11.54
2023-02-18T23:41:12.602Z,11.53
2023-02-18T23:44:20.682Z,11.50
2023-02-18T23:47:27.179Z,11.51
2023-02-18T23:50:33.368Z,11.54
2023-02-18T23:53:40.133Z,11.53
2023-02-18T23:56:46.404Z,11.50
2023-02-18T23:59:50.919Z,11.50
